sensor_id;sensor_type;location;lat;lon;timestamp;P1;durP1;ratioP1;P2;durP2;ratioP2
14484;SDS011;7328;50.812;4.422;2022-09-09T00:04:24;2.40;;;1.77;;
14484;SDS011;7328;50.812;4.422;2022-09-09T00:09:46;7.20;;;1.93;;
14484;SDS011;7328;50.812;4.422;2022-09-09T00:12:21;2.33;;;1.13;;
14484;SDS011;7328;50.812;4.422;2022-09-09T00:15:11;1.73;;;1.63;;
14484;SDS011;7328;50.812;4.422;2022-09-09T00:18:25;5.73;;;1.80;;
14484;SDS011;7328;50.812;4.422;2022-09-09T00:28:39;8.13;;;2.07;;
14484;SDS011;7328;50.812;4.422;2022-09-09T00:31:12;2.57;;;1.30;;
14484;SDS011;7328;50.812;4.422;2022-09-09T00:33:45;5.53;;;1.53;;
14484;SDS011;7328;50.812;4.422;2022-09-09T00:36:14;3.37;;;1.43;;
14484;SDS011;7328;50.812;4.422;2022-09-09T00:38:47;6.13;;;2.20;;
14484;SDS011;7328;50.812;4.422;2022-09-09T00:41:22;6.33;;;1.90;;
14484;SDS011;7328;50.812;4.422;2022-09-09T00:44:00;5.67;;;2.00;;
14484;SDS011;7328;50.812;4.422;2022-09-09T00:52:29;24.77;;;2.27;;
14484;SDS011;7328;50.812;4.422;2022-09-09T01:05:20;3.77;;;1.60;;
14484;SDS011;7328;50.812;4.422;2022-09-09T01:07:51;4.00;;;1.87;;
14484;SDS011;7328;50.812;4.422;2022-09-09T01:10:26;5.70;;;2.20;;
14484;SDS011;7328;50.812;4.422;2022-09-09T01:12:56;4.17;;;1.63;;
14484;SDS011;7328;50.812;4.422;2022-09-09T01:15:28;3.10;;;2.03;;
14484;SDS011;7328;50.812;4.422;2022-09-09T01:23:33;2.60;;;1.90;;
14484;SDS011;7328;50.812;4.422;2022-09-09T01:26:15;4.60;;;1.70;;
14484;SDS011;7328;50.812;4.422;2022-09-09T01:28:50;9.53;;;1.90;;
14484;SDS011;7328;50.812;4.422;2022-09-09T01:31:19;11.60;;;2.50;;
14484;SDS011;7328;50.812;4.422;2022-09-09T01:33:48;11.20;;;2.60;;
14484;SDS011;7328;50.812;4.422;2022-09-09T01:36:19;5.10;;;2.53;;
14484;SDS011;7328;50.812;4.422;2022-09-09T01:39:10;6.13;;;1.50;;
14484;SDS011;7328;50.812;4.422;2022-09-09T01:41:37;3.37;;;1.97;;
14484;SDS011;7328;50.812;4.422;2022-09-09T01:44:03;5.80;;;2.47;;
14484;SDS011;7328;50.812;4.422;2022-09-09T01:46:30;15.10;;;3.27;;
14484;SDS011;7328;50.812;4.422;2022-09-09T01:48:56;7.90;;;2.57;;
14484;SDS011;7328;50.812;4.422;2022-09-09T01:51:24;5.50;;;2.70;;
14484;SDS011;7328;50.812;4.422;2022-09-09T01:53:49;7.07;;;2.97;;
14484;SDS011;7328;50.812;4.422;2022-09-09T01:56:19;5.17;;;2.87;;
14484;SDS011;7328;50.812;4.422;2022-09-09T02:04:34;3.30;;;1.77;;
14484;SDS011;7328;50.812;4.422;2022-09-09T02:09:49;5.97;;;2.00;;
14484;SDS011;7328;50.812;4.422;2022-09-09T02:12:22;10.50;;;2.27;;
14484;SDS011;7328;50.812;4.422;2022-09-09T02:14:52;5.80;;;2.00;;
14484;SDS011;7328;50.812;4.422;2022-09-09T02:17:25;9.40;;;2.57;;
14484;SDS011;7328;50.812;4.422;2022-09-09T02:20:10;10.33;;;2.67;;
14484;SDS011;7328;50.812;4.422;2022-09-09T02:22:39;7.73;;;3.40;;
14484;SDS011;7328;50.812;4.422;2022-09-09T02:25:09;5.93;;;1.77;;
14484;SDS011;7328;50.812;4.422;2022-09-09T02:27:38;10.17;;;3.10;;
14484;SDS011;7328;50.812;4.422;2022-09-09T02:30:06;13.03;;;2.87;;
14484;SDS011;7328;50.812;4.422;2022-09-09T02:32:34;11.43;;;2.30;;
14484;SDS011;7328;50.812;4.422;2022-09-09T02:35:03;7.33;;;2.60;;
14484;SDS011;7328;50.812;4.422;2022-09-09T02:37:34;10.77;;;2.90;;
14484;SDS011;7328;50.812;4.422;2022-09-09T02:40:03;7.47;;;2.57;;
14484;SDS011;7328;50.812;4.422;2022-09-09T02:42:30;10.50;;;3.23;;
14484;SDS011;7328;50.812;4.422;2022-09-09T02:44:56;18.97;;;3.03;;
14484;SDS011;7328;50.812;4.422;2022-09-09T02:47:35;7.50;;;2.80;;
14484;SDS011;7328;50.812;4.422;2022-09-09T02:50:23;15.40;;;3.00;;
14484;SDS011;7328;50.812;4.422;2022-09-09T02:58:01;7.80;;;2.97;;
14484;SDS011;7328;50.812;4.422;2022-09-09T03:00:31;8.23;;;2.80;;
14484;SDS011;7328;50.812;4.422;2022-09-09T03:02:57;8.20;;;2.57;;
14484;SDS011;7328;50.812;4.422;2022-09-09T03:05:23;9.10;;;3.03;;
14484;SDS011;7328;50.812;4.422;2022-09-09T03:07:49;9.80;;;3.93;;
14484;SDS011;7328;50.812;4.422;2022-09-09T03:10:16;17.60;;;4.50;;
14484;SDS011;7328;50.812;4.422;2022-09-09T03:12:42;7.60;;;3.13;;
14484;SDS011;7328;50.812;4.422;2022-09-09T03:15:08;4.93;;;1.90;;
14484;SDS011;7328;50.812;4.422;2022-09-09T03:17:35;8.30;;;2.87;;
14484;SDS011;7328;50.812;4.422;2022-09-09T03:20:02;10.00;;;3.17;;
14484;SDS011;7328;50.812;4.422;2022-09-09T03:22:28;9.23;;;3.20;;
14484;SDS011;7328;50.812;4.422;2022-09-09T03:24:54;11.37;;;3.30;;
14484;SDS011;7328;50.812;4.422;2022-09-09T03:27:20;15.40;;;3.57;;
14484;SDS011;7328;50.812;4.422;2022-09-09T03:29:46;18.10;;;3.93;;
14484;SDS011;7328;50.812;4.422;2022-09-09T03:32:12;7.63;;;3.57;;
14484;SDS011;7328;50.812;4.422;2022-09-09T03:34:38;11.47;;;3.60;;
14484;SDS011;7328;50.812;4.422;2022-09-09T03:37:07;10.10;;;2.97;;
14484;SDS011;7328;50.812;4.422;2022-09-09T03:39:33;9.50;;;2.80;;
14484;SDS011;7328;50.812;4.422;2022-09-09T03:41:58;13.27;;;3.83;;
14484;SDS011;7328;50.812;4.422;2022-09-09T03:44:24;8.07;;;3.20;;
14484;SDS011;7328;50.812;4.422;2022-09-09T03:46:50;17.23;;;4.07;;
14484;SDS011;7328;50.812;4.422;2022-09-09T03:49:16;14.57;;;3.80;;
14484;SDS011;7328;50.812;4.422;2022-09-09T03:51:41;6.00;;;2.30;;
14484;SDS011;7328;50.812;4.422;2022-09-09T03:54:07;10.20;;;3.03;;
14484;SDS011;7328;50.812;4.422;2022-09-09T03:56:35;14.50;;;3.97;;
14484;SDS011;7328;50.812;4.422;2022-09-09T03:59:02;12.77;;;3.33;;
14484;SDS011;7328;50.812;4.422;2022-09-09T04:01:28;9.30;;;2.47;;
14484;SDS011;7328;50.812;4.422;2022-09-09T04:03:54;16.90;;;3.80;;
14484;SDS011;7328;50.812;4.422;2022-09-09T04:06:23;9.30;;;3.67;;
14484;SDS011;7328;50.812;4.422;2022-09-09T04:08:49;12.87;;;3.83;;
14484;SDS011;7328;50.812;4.422;2022-09-09T04:11:17;10.63;;;3.63;;
14484;SDS011;7328;50.812;4.422;2022-09-09T04:13:43;11.43;;;3.37;;
14484;SDS011;7328;50.812;4.422;2022-09-09T04:16:10;14.83;;;4.50;;
14484;SDS011;7328;50.812;4.422;2022-09-09T04:18:38;8.30;;;3.87;;
14484;SDS011;7328;50.812;4.422;2022-09-09T04:21:04;18.67;;;3.40;;
14484;SDS011;7328;50.812;4.422;2022-09-09T04:23:31;5.90;;;2.77;;
14484;SDS011;7328;50.812;4.422;2022-09-09T04:25:59;5.77;;;2.63;;
14484;SDS011;7328;50.812;4.422;2022-09-09T04:28:27;8.17;;;3.83;;
14484;SDS011;7328;50.812;4.422;2022-09-09T04:30:54;10.50;;;4.27;;
14484;SDS011;7328;50.812;4.422;2022-09-09T04:33:23;12.93;;;3.60;;
14484;SDS011;7328;50.812;4.422;2022-09-09T04:35:51;15.77;;;3.40;;
14484;SDS011;7328;50.812;4.422;2022-09-09T04:38:18;9.37;;;3.80;;
14484;SDS011;7328;50.812;4.422;2022-09-09T04:40:48;9.50;;;3.40;;
14484;SDS011;7328;50.812;4.422;2022-09-09T04:43:16;11.63;;;3.17;;
14484;SDS011;7328;50.812;4.422;2022-09-09T04:45:46;9.23;;;3.03;;
14484;SDS011;7328;50.812;4.422;2022-09-09T04:48:13;6.67;;;3.20;;
14484;SDS011;7328;50.812;4.422;2022-09-09T04:50:38;8.37;;;3.03;;
14484;SDS011;7328;50.812;4.422;2022-09-09T04:53:05;15.70;;;4.27;;
14484;SDS011;7328;50.812;4.422;2022-09-09T04:55:32;10.93;;;2.73;;
14484;SDS011;7328;50.812;4.422;2022-09-09T04:58:03;8.73;;;3.93;;
14484;SDS011;7328;50.812;4.422;2022-09-09T05:00:30;15.73;;;3.33;;
14484;SDS011;7328;50.812;4.422;2022-09-09T05:02:56;16.47;;;5.47;;
14484;SDS011;7328;50.812;4.422;2022-09-09T05:05:21;8.47;;;3.73;;
14484;SDS011;7328;50.812;4.422;2022-09-09T05:07:47;11.03;;;3.80;;
14484;SDS011;7328;50.812;4.422;2022-09-09T05:10:14;10.97;;;4.07;;
14484;SDS011;7328;50.812;4.422;2022-09-09T05:12:41;13.23;;;3.80;;
14484;SDS011;7328;50.812;4.422;2022-09-09T05:15:07;12.17;;;4.07;;
14484;SDS011;7328;50.812;4.422;2022-09-09T05:17:34;13.90;;;4.77;;
14484;SDS011;7328;50.812;4.422;2022-09-09T05:20:00;8.50;;;3.80;;
14484;SDS011;7328;50.812;4.422;2022-09-09T05:22:28;12.63;;;3.27;;
14484;SDS011;7328;50.812;4.422;2022-09-09T05:24:53;10.53;;;3.27;;
14484;SDS011;7328;50.812;4.422;2022-09-09T05:27:19;12.57;;;4.87;;
14484;SDS011;7328;50.812;4.422;2022-09-09T05:29:45;12.93;;;4.33;;
14484;SDS011;7328;50.812;4.422;2022-09-09T05:32:11;15.03;;;3.30;;
14484;SDS011;7328;50.812;4.422;2022-09-09T05:34:38;17.17;;;3.83;;
14484;SDS011;7328;50.812;4.422;2022-09-09T05:37:04;13.43;;;3.87;;
14484;SDS011;7328;50.812;4.422;2022-09-09T05:39:32;9.47;;;3.40;;
14484;SDS011;7328;50.812;4.422;2022-09-09T05:41:59;11.33;;;4.70;;
14484;SDS011;7328;50.812;4.422;2022-09-09T05:44:24;15.20;;;4.27;;
14484;SDS011;7328;50.812;4.422;2022-09-09T05:46:52;9.97;;;3.50;;
14484;SDS011;7328;50.812;4.422;2022-09-09T05:49:19;7.23;;;3.27;;
14484;SDS011;7328;50.812;4.422;2022-09-09T05:51:46;14.00;;;3.73;;
14484;SDS011;7328;50.812;4.422;2022-09-09T05:54:13;10.87;;;3.03;;
14484;SDS011;7328;50.812;4.422;2022-09-09T05:56:40;11.67;;;3.80;;
14484;SDS011;7328;50.812;4.422;2022-09-09T05:59:06;9.27;;;3.97;;
14484;SDS011;7328;50.812;4.422;2022-09-09T06:01:33;9.10;;;3.50;;
14484;SDS011;7328;50.812;4.422;2022-09-09T06:04:01;16.63;;;4.43;;
14484;SDS011;7328;50.812;4.422;2022-09-09T06:06:32;11.00;;;4.37;;
14484;SDS011;7328;50.812;4.422;2022-09-09T06:09:05;7.43;;;3.00;;
14484;SDS011;7328;50.812;4.422;2022-09-09T06:11:34;13.00;;;5.00;;
14484;SDS011;7328;50.812;4.422;2022-09-09T06:14:02;9.03;;;2.67;;
14484;SDS011;7328;50.812;4.422;2022-09-09T06:16:29;14.30;;;3.60;;
14484;SDS011;7328;50.812;4.422;2022-09-09T06:18:57;9.80;;;3.43;;
14484;SDS011;7328;50.812;4.422;2022-09-09T06:21:25;17.97;;;4.33;;
14484;SDS011;7328;50.812;4.422;2022-09-09T06:24:04;6.80;;;2.53;;
14484;SDS011;7328;50.812;4.422;2022-09-09T06:26:39;7.77;;;3.20;;
14484;SDS011;7328;50.812;4.422;2022-09-09T06:29:06;7.20;;;3.90;;
14484;SDS011;7328;50.812;4.422;2022-09-09T06:31:33;15.13;;;3.77;;
14484;SDS011;7328;50.812;4.422;2022-09-09T06:34:03;10.43;;;2.87;;
14484;SDS011;7328;50.812;4.422;2022-09-09T06:36:31;9.20;;;3.50;;
14484;SDS011;7328;50.812;4.422;2022-09-09T06:38:58;13.57;;;3.90;;
14484;SDS011;7328;50.812;4.422;2022-09-09T06:41:25;6.90;;;2.47;;
14484;SDS011;7328;50.812;4.422;2022-09-09T06:43:53;9.10;;;3.43;;
14484;SDS011;7328;50.812;4.422;2022-09-09T06:46:24;5.83;;;2.70;;
14484;SDS011;7328;50.812;4.422;2022-09-09T06:48:56;9.20;;;2.40;;
14484;SDS011;7328;50.812;4.422;2022-09-09T06:51:28;12.47;;;3.47;;
14484;SDS011;7328;50.812;4.422;2022-09-09T06:53:56;14.67;;;4.33;;
14484;SDS011;7328;50.812;4.422;2022-09-09T06:56:25;8.63;;;3.23;;
14484;SDS011;7328;50.812;4.422;2022-09-09T06:58:53;9.13;;;2.27;;
14484;SDS011;7328;50.812;4.422;2022-09-09T07:01:27;9.03;;;2.37;;
14484;SDS011;7328;50.812;4.422;2022-09-09T07:03:56;10.97;;;3.07;;
14484;SDS011;7328;50.812;4.422;2022-09-09T07:06:27;20.80;;;5.00;;
14484;SDS011;7328;50.812;4.422;2022-09-09T07:08:56;9.40;;;2.83;;
14484;SDS011;7328;50.812;4.422;2022-09-09T07:11:25;11.10;;;2.47;;
14484;SDS011;7328;50.812;4.422;2022-09-09T07:13:56;18.00;;;3.43;;
14484;SDS011;7328;50.812;4.422;2022-09-09T07:16:24;11.47;;;4.10;;
14484;SDS011;7328;50.812;4.422;2022-09-09T07:18:50;6.97;;;2.93;;
14484;SDS011;7328;50.812;4.422;2022-09-09T07:21:17;13.13;;;3.53;;
14484;SDS011;7328;50.812;4.422;2022-09-09T07:23:45;11.33;;;3.80;;
14484;SDS011;7328;50.812;4.422;2022-09-09T07:26:15;20.37;;;3.93;;
14484;SDS011;7328;50.812;4.422;2022-09-09T07:28:42;10.03;;;3.20;;
14484;SDS011;7328;50.812;4.422;2022-09-09T07:31:19;11.73;;;3.00;;
14484;SDS011;7328;50.812;4.422;2022-09-09T07:33:46;17.57;;;3.57;;
14484;SDS011;7328;50.812;4.422;2022-09-09T07:38:41;5.37;;;2.50;;
14484;SDS011;7328;50.812;4.422;2022-09-09T07:41:09;8.90;;;3.00;;
14484;SDS011;7328;50.812;4.422;2022-09-09T07:43:38;7.53;;;2.83;;
14484;SDS011;7328;50.812;4.422;2022-09-09T07:46:05;7.40;;;3.20;;
14484;SDS011;7328;50.812;4.422;2022-09-09T07:48:31;8.53;;;3.17;;
14484;SDS011;7328;50.812;4.422;2022-09-09T07:51:08;15.90;;;3.27;;
14484;SDS011;7328;50.812;4.422;2022-09-09T07:53:39;8.93;;;2.77;;
14484;SDS011;7328;50.812;4.422;2022-09-09T07:56:09;17.77;;;5.57;;
14484;SDS011;7328;50.812;4.422;2022-09-09T07:58:38;9.20;;;3.77;;
14484;SDS011;7328;50.812;4.422;2022-09-09T08:01:11;9.07;;;3.40;;
14484;SDS011;7328;50.812;4.422;2022-09-09T08:03:45;8.83;;;3.07;;
14484;SDS011;7328;50.812;4.422;2022-09-09T08:06:12;7.43;;;2.70;;
14484;SDS011;7328;50.812;4.422;2022-09-09T08:08:38;9.10;;;3.73;;
14484;SDS011;7328;50.812;4.422;2022-09-09T08:13:36;11.03;;;4.57;;
14484;SDS011;7328;50.812;4.422;2022-09-09T08:16:03;11.10;;;3.30;;
14484;SDS011;7328;50.812;4.422;2022-09-09T08:18:32;7.73;;;2.57;;
14484;SDS011;7328;50.812;4.422;2022-09-09T08:21:04;6.10;;;3.17;;
14484;SDS011;7328;50.812;4.422;2022-09-09T08:23:43;12.03;;;3.23;;
14484;SDS011;7328;50.812;4.422;2022-09-09T08:26:18;11.07;;;2.63;;
14484;SDS011;7328;50.812;4.422;2022-09-09T08:28:51;9.33;;;3.07;;
14484;SDS011;7328;50.812;4.422;2022-09-09T08:31:19;9.77;;;3.10;;
14484;SDS011;7328;50.812;4.422;2022-09-09T08:33:47;7.00;;;2.90;;
14484;SDS011;7328;50.812;4.422;2022-09-09T08:36:17;6.23;;;2.13;;
14484;SDS011;7328;50.812;4.422;2022-09-09T08:38:48;6.40;;;3.10;;
14484;SDS011;7328;50.812;4.422;2022-09-09T08:47:02;9.23;;;2.30;;
14484;SDS011;7328;50.812;4.422;2022-09-09T08:49:53;10.70;;;2.83;;
14484;SDS011;7328;50.812;4.422;2022-09-09T08:57:52;6.97;;;2.70;;
14484;SDS011;7328;50.812;4.422;2022-09-09T09:00:21;5.67;;;2.90;;
14484;SDS011;7328;50.812;4.422;2022-09-09T09:05:37;7.33;;;2.17;;
14484;SDS011;7328;50.812;4.422;2022-09-09T09:10:50;7.67;;;2.33;;
14484;SDS011;7328;50.812;4.422;2022-09-09T09:15:49;8.90;;;3.20;;
14484;SDS011;7328;50.812;4.422;2022-09-09T09:18:25;8.73;;;2.60;;
14484;SDS011;7328;50.812;4.422;2022-09-09T09:23:31;12.67;;;3.23;;
14484;SDS011;7328;50.812;4.422;2022-09-09T09:26:07;8.10;;;2.60;;
14484;SDS011;7328;50.812;4.422;2022-09-09T09:28:36;10.93;;;3.60;;
14484;SDS011;7328;50.812;4.422;2022-09-09T09:31:06;5.33;;;2.27;;
14484;SDS011;7328;50.812;4.422;2022-09-09T09:36:06;8.23;;;2.60;;
14484;SDS011;7328;50.812;4.422;2022-09-09T09:38:33;8.63;;;3.43;;
14484;SDS011;7328;50.812;4.422;2022-09-09T09:41:00;8.50;;;3.50;;
14484;SDS011;7328;50.812;4.422;2022-09-09T09:43:27;11.07;;;3.87;;
14484;SDS011;7328;50.812;4.422;2022-09-09T09:45:54;9.87;;;4.33;;
14484;SDS011;7328;50.812;4.422;2022-09-09T09:48:22;8.40;;;3.10;;
14484;SDS011;7328;50.812;4.422;2022-09-09T09:50:56;12.60;;;3.30;;
14484;SDS011;7328;50.812;4.422;2022-09-09T09:58:32;8.43;;;2.80;;
14484;SDS011;7328;50.812;4.422;2022-09-09T10:04:18;7.30;;;2.83;;
14484;SDS011;7328;50.812;4.422;2022-09-09T10:06:48;7.23;;;3.03;;
14484;SDS011;7328;50.812;4.422;2022-09-09T10:09:30;9.60;;;2.97;;
14484;SDS011;7328;50.812;4.422;2022-09-09T10:14:55;5.33;;;3.27;;
14484;SDS011;7328;50.812;4.422;2022-09-09T10:23:15;7.13;;;3.10;;
14484;SDS011;7328;50.812;4.422;2022-09-09T10:25:57;6.47;;;3.70;;
14484;SDS011;7328;50.812;4.422;2022-09-09T10:37:36;4.50;;;2.73;;
14484;SDS011;7328;50.812;4.422;2022-09-09T10:42:58;5.90;;;2.67;;
14484;SDS011;7328;50.812;4.422;2022-09-09T10:53:43;4.60;;;2.77;;
14484;SDS011;7328;50.812;4.422;2022-09-09T10:56:16;5.57;;;2.33;;
14484;SDS011;7328;50.812;4.422;2022-09-09T10:58:46;8.33;;;2.47;;
14484;SDS011;7328;50.812;4.422;2022-09-09T11:01:34;11.60;;;3.40;;
14484;SDS011;7328;50.812;4.422;2022-09-09T11:04:05;6.63;;;2.37;;
14484;SDS011;7328;50.812;4.422;2022-09-09T11:06:42;7.43;;;2.67;;
14484;SDS011;7328;50.812;4.422;2022-09-09T11:09:16;4.13;;;2.43;;
14484;SDS011;7328;50.812;4.422;2022-09-09T11:11:53;5.27;;;1.73;;
14484;SDS011;7328;50.812;4.422;2022-09-09T11:14:40;10.13;;;3.43;;
14484;SDS011;7328;50.812;4.422;2022-09-09T11:17:23;6.33;;;2.63;;
14484;SDS011;7328;50.812;4.422;2022-09-09T11:20:12;4.93;;;2.00;;
14484;SDS011;7328;50.812;4.422;2022-09-09T11:22:43;5.47;;;2.10;;
14484;SDS011;7328;50.812;4.422;2022-09-09T11:25:14;5.13;;;1.87;;
14484;SDS011;7328;50.812;4.422;2022-09-09T11:27:53;4.60;;;2.03;;
14484;SDS011;7328;50.812;4.422;2022-09-09T11:42:22;4.40;;;1.93;;
14484;SDS011;7328;50.812;4.422;2022-09-09T11:44:43;8.07;;;2.03;;
14484;SDS011;7328;50.812;4.422;2022-09-09T11:47:50;4.50;;;1.53;;
14484;SDS011;7328;50.812;4.422;2022-09-09T11:50:09;3.80;;;2.17;;
14484;SDS011;7328;50.812;4.422;2022-09-09T11:53:03;5.67;;;1.60;;
14484;SDS011;7328;50.812;4.422;2022-09-09T11:58:39;3.50;;;2.70;;
14484;SDS011;7328;50.812;4.422;2022-09-09T12:04:16;4.47;;;2.00;;
14484;SDS011;7328;50.812;4.422;2022-09-09T12:07:04;4.63;;;1.90;;
14484;SDS011;7328;50.812;4.422;2022-09-09T12:09:50;7.17;;;2.17;;
14484;SDS011;7328;50.812;4.422;2022-09-09T12:17:40;4.90;;;2.00;;
14484;SDS011;7328;50.812;4.422;2022-09-09T12:27:59;6.33;;;2.30;;
14484;SDS011;7328;50.812;4.422;2022-09-09T12:30:34;5.27;;;2.47;;
14484;SDS011;7328;50.812;4.422;2022-09-09T12:33:16;5.00;;;1.70;;
14484;SDS011;7328;50.812;4.422;2022-09-09T12:35:44;5.07;;;1.57;;
14484;SDS011;7328;50.812;4.422;2022-09-09T12:38:26;6.33;;;2.27;;
14484;SDS011;7328;50.812;4.422;2022-09-09T12:40:59;3.40;;;1.47;;
14484;SDS011;7328;50.812;4.422;2022-09-09T12:43:26;5.43;;;2.07;;
14484;SDS011;7328;50.812;4.422;2022-09-09T12:46:03;6.47;;;2.97;;
14484;SDS011;7328;50.812;4.422;2022-09-09T12:48:36;5.43;;;1.33;;
14484;SDS011;7328;50.812;4.422;2022-09-09T12:51:06;1.47;;;1.00;;
14484;SDS011;7328;50.812;4.422;2022-09-09T12:53:43;5.30;;;1.07;;
14484;SDS011;7328;50.812;4.422;2022-09-09T12:56:17;4.50;;;1.87;;
14484;SDS011;7328;50.812;4.422;2022-09-09T12:58:46;8.37;;;2.47;;
14484;SDS011;7328;50.812;4.422;2022-09-09T13:01:26;2.37;;;1.13;;
14484;SDS011;7328;50.812;4.422;2022-09-09T13:03:54;3.97;;;1.20;;
14484;SDS011;7328;50.812;4.422;2022-09-09T13:06:22;1.97;;;1.00;;
14484;SDS011;7328;50.812;4.422;2022-09-09T13:08:52;2.97;;;1.20;;
14484;SDS011;7328;50.812;4.422;2022-09-09T13:14:01;3.90;;;1.00;;
14484;SDS011;7328;50.812;4.422;2022-09-09T13:16:28;4.00;;;1.57;;
14484;SDS011;7328;50.812;4.422;2022-09-09T13:18:59;5.57;;;1.27;;
14484;SDS011;7328;50.812;4.422;2022-09-09T13:21:34;3.13;;;1.23;;
14484;SDS011;7328;50.812;4.422;2022-09-09T13:24:04;3.43;;;1.40;;
14484;SDS011;7328;50.812;4.422;2022-09-09T13:26:53;2.70;;;0.80;;
14484;SDS011;7328;50.812;4.422;2022-09-09T13:29:21;1.50;;;1.37;;
14484;SDS011;7328;50.812;4.422;2022-09-09T13:31:47;3.00;;;0.80;;
14484;SDS011;7328;50.812;4.422;2022-09-09T13:34:30;1.37;;;1.10;;
14484;SDS011;7328;50.812;4.422;2022-09-09T13:36:59;3.13;;;1.07;;
14484;SDS011;7328;50.812;4.422;2022-09-09T13:39:50;1.17;;;0.70;;
14484;SDS011;7328;50.812;4.422;2022-09-09T13:42:24;1.57;;;0.80;;
14484;SDS011;7328;50.812;4.422;2022-09-09T13:44:52;4.40;;;1.37;;
14484;SDS011;7328;50.812;4.422;2022-09-09T13:47:28;8.53;;;1.10;;
14484;SDS011;7328;50.812;4.422;2022-09-09T13:49:54;4.13;;;1.93;;
14484;SDS011;7328;50.812;4.422;2022-09-09T13:52:20;5.73;;;2.27;;
14484;SDS011;7328;50.812;4.422;2022-09-09T13:54:48;4.00;;;0.97;;
14484;SDS011;7328;50.812;4.422;2022-09-09T13:57:18;2.67;;;1.20;;
14484;SDS011;7328;50.812;4.422;2022-09-09T13:59:48;4.73;;;1.77;;
14484;SDS011;7328;50.812;4.422;2022-09-09T14:02:14;3.70;;;0.93;;
14484;SDS011;7328;50.812;4.422;2022-09-09T14:04:42;2.37;;;1.03;;
14484;SDS011;7328;50.812;4.422;2022-09-09T14:07:09;1.30;;;1.20;;
14484;SDS011;7328;50.812;4.422;2022-09-09T14:09:37;1.53;;;0.60;;
14484;SDS011;7328;50.812;4.422;2022-09-09T14:12:03;3.63;;;2.20;;
14484;SDS011;7328;50.812;4.422;2022-09-09T14:14:29;1.80;;;1.03;;
14484;SDS011;7328;50.812;4.422;2022-09-09T14:16:55;4.63;;;1.50;;
14484;SDS011;7328;50.812;4.422;2022-09-09T14:19:21;4.33;;;1.10;;
14484;SDS011;7328;50.812;4.422;2022-09-09T14:21:47;3.53;;;1.20;;
14484;SDS011;7328;50.812;4.422;2022-09-09T14:24:13;1.97;;;0.97;;
14484;SDS011;7328;50.812;4.422;2022-09-09T14:26:39;6.73;;;1.73;;
14484;SDS011;7328;50.812;4.422;2022-09-09T14:29:05;6.40;;;2.60;;
14484;SDS011;7328;50.812;4.422;2022-09-09T14:31:32;3.60;;;1.13;;
14484;SDS011;7328;50.812;4.422;2022-09-09T14:33:58;3.83;;;1.13;;
14484;SDS011;7328;50.812;4.422;2022-09-09T14:36:24;3.83;;;1.37;;
14484;SDS011;7328;50.812;4.422;2022-09-09T14:38:49;4.27;;;2.77;;
14484;SDS011;7328;50.812;4.422;2022-09-09T14:41:17;2.53;;;1.20;;
14484;SDS011;7328;50.812;4.422;2022-09-09T14:43:45;4.57;;;1.50;;
14484;SDS011;7328;50.812;4.422;2022-09-09T14:46:15;2.13;;;1.57;;
14484;SDS011;7328;50.812;4.422;2022-09-09T14:48:42;3.70;;;1.57;;
14484;SDS011;7328;50.812;4.422;2022-09-09T14:53:44;2.67;;;1.70;;
14484;SDS011;7328;50.812;4.422;2022-09-09T14:56:12;3.50;;;2.23;;
14484;SDS011;7328;50.812;4.422;2022-09-09T14:58:39;2.37;;;1.13;;
14484;SDS011;7328;50.812;4.422;2022-09-09T15:01:09;3.63;;;1.90;;
14484;SDS011;7328;50.812;4.422;2022-09-09T15:03:40;3.23;;;1.00;;
14484;SDS011;7328;50.812;4.422;2022-09-09T15:06:11;3.13;;;1.00;;
14484;SDS011;7328;50.812;4.422;2022-09-09T15:08:40;3.23;;;1.20;;
14484;SDS011;7328;50.812;4.422;2022-09-09T15:11:07;4.00;;;1.70;;
14484;SDS011;7328;50.812;4.422;2022-09-09T15:13:34;2.17;;;1.20;;
14484;SDS011;7328;50.812;4.422;2022-09-09T15:16:06;4.60;;;1.27;;
14484;SDS011;7328;50.812;4.422;2022-09-09T15:18:33;3.90;;;1.90;;
14484;SDS011;7328;50.812;4.422;2022-09-09T15:21:01;2.70;;;0.90;;
14484;SDS011;7328;50.812;4.422;2022-09-09T15:23:33;4.50;;;1.43;;
14484;SDS011;7328;50.812;4.422;2022-09-09T15:26:00;8.20;;;1.47;;
14484;SDS011;7328;50.812;4.422;2022-09-09T15:28:26;2.93;;;1.10;;
14484;SDS011;7328;50.812;4.422;2022-09-09T15:30:52;3.73;;;0.97;;
14484;SDS011;7328;50.812;4.422;2022-09-09T15:33:19;4.87;;;1.90;;
14484;SDS011;7328;50.812;4.422;2022-09-09T15:35:46;4.33;;;1.87;;
14484;SDS011;7328;50.812;4.422;2022-09-09T15:38:12;4.73;;;1.93;;
14484;SDS011;7328;50.812;4.422;2022-09-09T15:40:38;5.40;;;1.20;;
14484;SDS011;7328;50.812;4.422;2022-09-09T15:43:05;2.77;;;1.07;;
14484;SDS011;7328;50.812;4.422;2022-09-09T15:45:32;3.47;;;1.43;;
14484;SDS011;7328;50.812;4.422;2022-09-09T15:47:59;3.83;;;1.20;;
14484;SDS011;7328;50.812;4.422;2022-09-09T15:50:25;5.00;;;1.83;;
14484;SDS011;7328;50.812;4.422;2022-09-09T15:52:52;2.53;;;1.20;;
14484;SDS011;7328;50.812;4.422;2022-09-09T15:55:18;4.23;;;1.60;;
14484;SDS011;7328;50.812;4.422;2022-09-09T15:57:49;4.20;;;1.17;;
14484;SDS011;7328;50.812;4.422;2022-09-09T16:00:17;4.67;;;2.77;;
14484;SDS011;7328;50.812;4.422;2022-09-09T16:02:48;4.50;;;1.43;;
14484;SDS011;7328;50.812;4.422;2022-09-09T16:05:14;3.73;;;1.33;;
14484;SDS011;7328;50.812;4.422;2022-09-09T16:07:40;1.63;;;1.10;;
14484;SDS011;7328;50.812;4.422;2022-09-09T16:10:07;5.13;;;1.30;;
14484;SDS011;7328;50.812;4.422;2022-09-09T16:12:33;2.87;;;1.00;;
14484;SDS011;7328;50.812;4.422;2022-09-09T16:14:59;2.47;;;1.33;;
14484;SDS011;7328;50.812;4.422;2022-09-09T16:17:25;1.97;;;1.67;;
14484;SDS011;7328;50.812;4.422;2022-09-09T16:19:52;2.17;;;1.10;;
14484;SDS011;7328;50.812;4.422;2022-09-09T16:22:19;1.50;;;1.33;;
14484;SDS011;7328;50.812;4.422;2022-09-09T16:24:45;1.37;;;1.30;;
14484;SDS011;7328;50.812;4.422;2022-09-09T16:27:11;3.40;;;2.03;;
14484;SDS011;7328;50.812;4.422;2022-09-09T16:29:36;7.37;;;2.93;;
14484;SDS011;7328;50.812;4.422;2022-09-09T16:32:02;4.90;;;1.87;;
14484;SDS011;7328;50.812;4.422;2022-09-09T16:34:28;5.77;;;1.30;;
14484;SDS011;7328;50.812;4.422;2022-09-09T16:36:54;2.10;;;1.03;;
14484;SDS011;7328;50.812;4.422;2022-09-09T16:39:21;13.20;;;2.33;;
14484;SDS011;7328;50.812;4.422;2022-09-09T16:41:47;15.00;;;2.10;;
14484;SDS011;7328;50.812;4.422;2022-09-09T16:44:14;1.00;;;0.93;;
14484;SDS011;7328;50.812;4.422;2022-09-09T16:46:43;2.30;;;1.27;;
14484;SDS011;7328;50.812;4.422;2022-09-09T16:49:10;2.03;;;1.40;;
14484;SDS011;7328;50.812;4.422;2022-09-09T16:51:39;2.53;;;1.60;;
14484;SDS011;7328;50.812;4.422;2022-09-09T16:54:09;2.00;;;1.20;;
14484;SDS011;7328;50.812;4.422;2022-09-09T16:56:37;1.43;;;1.13;;
14484;SDS011;7328;50.812;4.422;2022-09-09T16:59:06;1.30;;;1.20;;
14484;SDS011;7328;50.812;4.422;2022-09-09T17:01:37;2.17;;;1.30;;
14484;SDS011;7328;50.812;4.422;2022-09-09T17:04:09;2.67;;;1.60;;
14484;SDS011;7328;50.812;4.422;2022-09-09T17:06:38;2.87;;;1.13;;
14484;SDS011;7328;50.812;4.422;2022-09-09T17:09:05;2.23;;;1.50;;
14484;SDS011;7328;50.812;4.422;2022-09-09T17:11:33;2.43;;;1.67;;
14484;SDS011;7328;50.812;4.422;2022-09-09T17:13:59;6.27;;;2.23;;
14484;SDS011;7328;50.812;4.422;2022-09-09T17:16:26;1.97;;;1.53;;
14484;SDS011;7328;50.812;4.422;2022-09-09T17:18:54;7.03;;;2.03;;
14484;SDS011;7328;50.812;4.422;2022-09-09T17:21:22;1.63;;;1.53;;
14484;SDS011;7328;50.812;4.422;2022-09-09T17:23:50;4.27;;;1.77;;
14484;SDS011;7328;50.812;4.422;2022-09-09T17:26:18;6.63;;;1.77;;
14484;SDS011;7328;50.812;4.422;2022-09-09T17:28:46;7.10;;;2.10;;
14484;SDS011;7328;50.812;4.422;2022-09-09T17:31:13;4.17;;;1.70;;
14484;SDS011;7328;50.812;4.422;2022-09-09T17:33:42;4.47;;;2.30;;
14484;SDS011;7328;50.812;4.422;2022-09-09T17:36:15;4.93;;;1.83;;
14484;SDS011;7328;50.812;4.422;2022-09-09T17:38:42;4.73;;;2.17;;
14484;SDS011;7328;50.812;4.422;2022-09-09T17:41:10;6.13;;;2.53;;
14484;SDS011;7328;50.812;4.422;2022-09-09T17:43:49;2.53;;;1.93;;
14484;SDS011;7328;50.812;4.422;2022-09-09T17:46:20;6.70;;;2.40;;